Time,TemperatureF,DewpointF,PressureIn,WindDirection,WindDirectionDegrees,WindSpeedMPH,WindSpeedGustMPH,Humidity,HourlyPrecipIn,Conditions,Clouds,dailyrainin,SoftwareType,DateUTC
2013-02-03 00:00:00,40.8,39.2,30.22,North,355,0.0,0.0,94,0.00,,SKC,0.00,VWS V14.01,2013-02-03 08:00:00,
2013-02-03 00:05:00,40.7,39.1,30.22,North,355,0.0,0.0,94,0.00,,SKC,0.00,VWS V14.01,2013-02-03 08:05:00,
2013-02-03 00:10:00,40.7,39.1,30.22,North,355,0.0,0.0,94,0.00,,SKC,0.00,VWS V14.01,2013-02-03 08:10:00,
2013-02-03 00:19:00,40.6,39.0,30.22,North,355,0.0,0.0,94,0.00,,SKC,0.00,VWS V14.01,2013-02-03 08:19:00,
2013-02-03 00:25:00,40.6,39.0,30.22,North,355,0.0,0.0,94,0.00,,SKC,0.00,VWS V14.01,2013-02-03 08:25:00,
2013-02-03 00:30:00,40.8,39.2,30.22,North,355,0.0,0.0,94,0.00,,SKC,0.00,VWS V14.01,2013-02-03 08:30:00,
2013-02-03 00:40:00,42.1,40.8,30.22,North,355,0.0,0.0,95,0.00,,SKC,0.00,VWS V14.01,2013-02-03 08:40:00,
2013-02-03 00:45:00,42.1,40.8,30.22,North,355,0.0,0.0,95,0.00,,SKC,0.00,VWS V14.01,2013-02-03 08:45:00,
2013-02-03 00:50:00,42.4,41.1,30.22,North,355,0.0,0.0,95,0.00,,SKC,0.00,VWS V14.01,2013-02-03 08:50:00,
2013-02-03 00:59:00,43.1,41.8,30.21,North,355,0.0,0.0,95,0.00,,SKC,0.00,VWS V14.01,2013-02-03 08:59:00,
2013-02-03 01:10:00,42.7,41.4,30.21,North,355,0.0,0.0,95,0.00,,SKC,0.00,VWS V14.01,2013-02-03 09:10:00,
2013-02-03 01:20:00,42.0,40.7,30.21,North,355,0.0,0.0,95,0.00,,SKC,0.00,VWS V14.01,2013-02-03 09:20:00,
2013-02-03 01:30:00,41.4,40.1,30.21,North,355,0.0,0.0,95,0.00,,SKC,0.00,VWS V14.01,2013-02-03 09:30:00,
2013-02-03 01:40:00,40.9,39.6,30.21,North,355,0.0,0.0,95,0.00,,SKC,0.00,VWS V14.01,2013-02-03 09:40:00,
2013-02-03 01:49:00,40.6,39.0,30.20,North,355,0.0,0.0,94,0.00,,SKC,0.00,VWS V14.01,2013-02-03 09:49:00,
2013-02-03 01:55:00,40.4,38.8,30.21,North,355,0.0,0.0,94,0.00,,SKC,0.00,VWS V14.01,2013-02-03 09:55:00,
2013-02-03 02:05:00,40.3,39.0,30.21,North,355,0.0,4.0,95,0.00,,SKC,0.00,VWS V14.01,2013-02-03 10:05:00,
2013-02-03 02:15:00,40.7,39.4,30.21,North,355,0.0,0.0,95,0.00,,SKC,0.00,VWS V14.01,2013-02-03 10:15:00,
2013-02-03 02:20:00,40.6,39.3,30.22,North,355,0.0,0.0,95,0.00,,SKC,0.00,VWS V14.01,2013-02-03 10:20:00,
2013-02-03 02:25:00,40.5,39.2,30.22,North,355,0.0,0.0,95,0.00,,SKC,0.00,VWS V14.01,2013-02-03 10:25:00,
2013-02-03 02:30:00,40.4,39.1,30.22,North,355,0.0,0.0,95,0.00,,SKC,0.00,VWS V14.01,2013-02-03 10:30:00,
2013-02-03 02:35:00,40.2,38.9,30.22,North,355,0.0,0.0,95,0.00,,SKC,0.00,VWS V14.01,2013-02-03 10:35:00,
2013-02-03 02:40:00,40.2,38.9,30.22,North,355,0.0,0.0,95,0.00,,SKC,0.00,VWS V14.01,2013-02-03 10:40:00,
2013-02-03 02:45:00,40.5,39.2,30.22,North,355,0.0,0.0,95,0.00,,SKC,0.00,VWS V14.01,2013-02-03 10:45:00,
2013-02-03 02:50:00,40.7,39.7,30.22,North,355,0.0,0.0,96,0.00,,SKC,0.00,VWS V14.01,2013-02-03 10:50:00,
2013-02-03 02:55:00,40.9,39.6,30.22,North,355,0.0,0.0,95,0.00,,SKC,0.00,VWS V14.01,2013-02-03 10:55:00,
2013-02-03 03:00:00,41.1,39.8,30.22,North,355,0.0,0.0,95,0.00,,SKC,0.00,VWS V14.01,2013-02-03 11:00:00,
2013-02-03 03:05:00,41.0,39.7,30.22,North,355,0.0,0.0,95,0.00,,SKC,0.00,VWS V14.01,2013-02-03 11:05:00,
2013-02-03 03:15:00,41.0,39.7,30.22,North,355,0.0,0.0,95,0.00,,SKC,0.00,VWS V14.01,2013-02-03 11:15:00,
2013-02-03 03:20:00,41.0,39.7,30.22,North,355,0.0,0.0,95,0.00,,SKC,0.00,VWS V14.01,2013-02-03 11:20:00,
2013-02-03 03:29:00,40.9,39.6,30.21,North,355,0.0,0.0,95,0.00,,SKC,0.00,VWS V14.01,2013-02-03 11:29:00,
2013-02-03 03:35:00,40.8,39.5,30.21,North,355,0.0,0.0,95,0.00,,SKC,0.00,VWS V14.01,2013-02-03 11:35:00,
2013-02-03 03:40:00,40.7,39.4,30.21,North,355,0.0,0.0,95,0.00,,SKC,0.00,VWS V14.01,2013-02-03 11:40:00,
2013-02-03 03:45:00,40.6,39.3,30.21,North,355,0.0,0.0,95,0.00,,SKC,0.00,VWS V14.01,2013-02-03 11:45:00,
2013-02-03 03:50:00,40.5,39.2,30.21,North,355,0.0,0.0,95,0.00,,SKC,0.00,VWS V14.01,2013-02-03 11:50:00,
2013-02-03 03:55:00,40.9,39.8,30.21,North,355,0.0,0.0,96,0.00,,SKC,0.00,VWS V14.01,2013-02-03 11:55:00,
2013-02-03 04:05:00,41.9,40.8,30.21,NW,306,0.0,4.0,96,0.00,,SKC,0.00,VWS V14.01,2013-02-03 12:05:00,
2013-02-03 04:15:00,42.5,41.4,30.20,SW,233,0.0,2.0,96,0.00,,SKC,0.00,VWS V14.01,2013-02-03 12:15:00,
2013-02-03 04:20:00,42.7,41.6,30.20,SW,233,0.0,0.0,96,0.00,,SKC,0.00,VWS V14.01,2013-02-03 12:20:00,
2013-02-03 04:25:00,42.8,41.7,30.20,SW,234,0.0,1.0,96,0.00,,SKC,0.00,VWS V14.01,2013-02-03 12:25:00,
2013-02-03 04:30:00,42.7,41.6,30.20,SW,233,0.0,0.0,96,0.00,,SKC,0.00,VWS V14.01,2013-02-03 12:30:00,
2013-02-03 04:35:00,42.7,41.6,30.20,SW,234,0.0,3.0,96,0.00,,SKC,0.00,VWS V14.01,2013-02-03 12:35:00,
2013-02-03 04:40:00,42.7,41.6,30.20,SW,234,0.0,1.0,96,0.00,,SKC,0.00,VWS V14.01,2013-02-03 12:40:00,
2013-02-03 04:49:00,42.8,41.7,30.20,SW,234,0.0,2.0,96,0.00,,SKC,0.00,VWS V14.01,2013-02-03 12:49:00,
2013-02-03 04:55:00,42.7,41.6,30.20,SW,234,0.0,0.0,96,0.00,,SKC,0.00,VWS V14.01,2013-02-03 12:55:00,
2013-02-03 05:00:00,42.6,41.5,30.20,SW,234,0.0,0.0,96,0.00,,SKC,0.00,VWS V14.01,2013-02-03 13:00:00,
2013-02-03 05:05:00,42.6,41.5,30.20,SW,234,0.0,1.0,96,0.00,,SKC,0.00,VWS V14.01,2013-02-03 13:05:00,
2013-02-03 05:15:00,42.5,41.4,30.20,SW,234,0.0,0.0,96,0.00,,SKC,0.00,VWS V14.01,2013-02-03 13:15:00,
2013-02-03 05:20:00,42.4,41.3,30.20,SW,234,0.0,0.0,96,0.00,,SKC,0.00,VWS V14.01,2013-02-03 13:20:00,
2013-02-03 05:25:00,42.3,41.0,30.20,SW,234,0.0,0.0,95,0.00,,SKC,0.00,VWS V14.01,2013-02-03 13:25:00,
2013-02-03 05:35:00,41.7,40.4,30.20,SW,234,0.0,0.0,95,0.00,,SKC,0.00,VWS V14.01,2013-02-03 13:35:00,
2013-02-03 05:45:00,41.7,40.7,30.20,South,188,2.0,5.0,96,0.00,,SKC,0.00,VWS V14.01,2013-02-03 13:45:00,
2013-02-03 05:50:00,42.3,41.2,30.20,South,188,0.0,2.0,96,0.00,,SKC,0.00,VWS V14.01,2013-02-03 13:50:00,
2013-02-03 05:55:00,42.4,41.3,30.20,South,187,0.0,0.0,96,0.00,,SKC,0.00,VWS V14.01,2013-02-03 13:55:00,
2013-02-03 06:00:00,42.4,41.3,30.20,SSW,202,0.0,2.0,96,0.00,,SKC,0.00,VWS V14.01,2013-02-03 14:00:00,
2013-02-03 06:05:00,42.3,41.0,30.21,SSW,202,0.0,1.0,95,0.00,,SKC,0.00,VWS V14.01,2013-02-03 14:05:00,
2013-02-03 06:10:00,42.2,40.9,30.21,SW,227,0.0,2.0,95,0.00,,SKC,0.00,VWS V14.01,2013-02-03 14:10:00,
2013-02-03 06:15:00,42.1,40.8,30.22,SW,227,0.0,1.0,95,0.00,,SKC,0.00,VWS V14.01,2013-02-03 14:15:00,
2013-02-03 06:20:00,42.0,40.7,30.22,WSW,241,0.0,4.0,95,0.00,,SKC,0.00,VWS V14.01,2013-02-03 14:20:00,
2013-02-03 06:25:00,42.0,40.7,30.22,WSW,241,0.0,0.0,95,0.00,,SKC,0.00,VWS V14.01,2013-02-03 14:25:00,
2013-02-03 06:30:00,41.9,40.6,30.22,WSW,241,0.0,0.0,95,0.00,,SKC,0.00,VWS V14.01,2013-02-03 14:30:00,
2013-02-03 06:35:00,41.7,40.4,30.23,WSW,241,0.0,0.0,95,0.00,,SKC,0.00,VWS V14.01,2013-02-03 14:35:00,
2013-02-03 06:40:00,41.7,40.4,30.22,WSW,241,0.0,1.0,95,0.00,,SKC,0.00,VWS V14.01,2013-02-03 14:40:00,
2013-02-03 06:45:00,41.8,40.5,30.22,WSW,241,2.0,2.0,95,0.00,,SKC,0.00,VWS V14.01,2013-02-03 14:45:00,
2013-02-03 06:50:00,41.9,40.6,30.22,WSW,241,0.0,2.0,95,0.00,,SKC,0.00,VWS V14.01,2013-02-03 14:50:00,
2013-02-03 06:55:00,41.7,40.1,30.22,WSW,241,0.0,0.0,94,0.00,,SKC,0.00,VWS V14.01,2013-02-03 14:55:00,
2013-02-03 07:00:00,41.4,39.8,30.22,WSW,241,0.0,0.0,94,0.00,,SKC,0.00,VWS V14.01,2013-02-03 15:00:00,
2013-02-03 07:05:00,40.9,39.3,30.22,WSW,241,0.0,0.0,94,0.00,,SKC,0.00,VWS V14.01,2013-02-03 15:05:00,
2013-02-03 07:10:00,40.4,38.8,30.22,WSW,241,0.0,0.0,94,0.00,,SKC,0.00,VWS V14.01,2013-02-03 15:10:00,
2013-02-03 07:15:00,40.0,38.4,30.22,WSW,241,0.0,0.0,94,0.00,,SKC,0.00,VWS V14.01,2013-02-03 15:15:00,
2013-02-03 07:20:00,39.7,38.1,30.22,WSW,241,0.0,0.0,94,0.00,,SKC,0.00,VWS V14.01,2013-02-03 15:20:00,
2013-02-03 07:25:00,39.5,37.9,30.22,WSW,241,0.0,0.0,94,0.00,,SKC,0.00,VWS V14.01,2013-02-03 15:25:00,
2013-02-03 07:30:00,39.3,37.7,30.22,WSW,241,0.0,0.0,94,0.00,,SKC,0.00,VWS V14.01,2013-02-03 15:30:00,
2013-02-03 07:40:00,39.2,37.6,30.22,WSW,241,0.0,0.0,94,0.00,,SKC,0.00,VWS V14.01,2013-02-03 15:40:00,
2013-02-03 07:45:00,39.1,37.5,30.22,WSW,241,0.0,0.0,94,0.00,,SKC,0.00,VWS V14.01,2013-02-03 15:45:00,
2013-02-03 07:50:00,39.2,37.6,30.22,WSW,241,0.0,2.0,94,0.00,,SKC,0.00,VWS V14.01,2013-02-03 15:50:00,
2013-02-03 07:55:00,39.1,37.5,30.22,WSW,241,0.0,0.0,94,0.00,,SKC,0.00,VWS V14.01,2013-02-03 15:55:00,
2013-02-03 08:00:00,39.0,37.4,30.22,WSW,241,0.0,0.0,94,0.00,,SKC,0.00,VWS V14.01,2013-02-03 16:00:00,
2013-02-03 08:05:00,39.2,37.9,30.22,WSW,241,0.0,0.0,95,0.00,,SKC,0.00,VWS V14.01,2013-02-03 16:05:00,
2013-02-03 08:10:00,39.5,38.2,30.22,WSW,241,0.0,0.0,95,0.00,,SKC,0.00,VWS V14.01,2013-02-03 16:10:00,
2013-02-03 08:15:00,40.1,38.8,30.22,WSW,241,0.0,0.0,95,0.00,,SKC,0.00,VWS V14.01,2013-02-03 16:15:00,
2013-02-03 08:20:00,40.7,39.4,30.22,WSW,241,0.0,0.0,95,0.00,,SKC,0.00,VWS V14.01,2013-02-03 16:20:00,
2013-02-03 08:25:00,41.3,40.2,30.22,WSW,241,0.0,0.0,96,0.00,,SKC,0.00,VWS V14.01,2013-02-03 16:25:00,
2013-02-03 08:30:00,41.8,40.8,30.22,WSW,241,0.0,0.0,96,0.00,,SKC,0.00,VWS V14.01,2013-02-03 16:30:00,
2013-02-03 08:35:00,42.4,41.3,30.23,WSW,241,0.0,0.0,96,0.00,,SKC,0.00,VWS V14.01,2013-02-03 16:35:00,
2013-02-03 08:40:00,43.3,42.2,30.23,WSW,241,0.0,0.0,96,0.00,,SKC,0.00,VWS V14.01,2013-02-03 16:40:00,
2013-02-03 08:50:00,45.2,43.3,30.23,WSW,240,1.0,2.0,93,0.00,,SKC,0.00,VWS V14.01,2013-02-03 16:50:00,
2013-02-03 08:55:00,46.1,43.9,30.23,South,186,0.0,4.0,92,0.00,,SKC,0.00,VWS V14.01,2013-02-03 16:55:00,
2013-02-03 09:00:00,46.8,43.7,30.23,SSW,196,1.0,4.0,89,0.00,,SKC,0.00,VWS V14.01,2013-02-03 17:00:00,
2013-02-03 09:05:00,47.6,43.9,30.22,SSE,164,0.0,4.0,87,0.00,,SKC,0.00,VWS V14.01,2013-02-03 17:05:00,
2013-02-03 09:10:00,48.5,43.9,30.22,SSE,161,1.0,4.0,84,0.00,,SKC,0.00,VWS V14.01,2013-02-03 17:10:00,
2013-02-03 09:15:00,49.2,44.3,30.22,South,183,3.0,5.0,83,0.00,,SKC,0.00,VWS V14.01,2013-02-03 17:15:00,
2013-02-03 09:20:00,49.9,44.0,30.22,South,173,0.0,4.0,80,0.00,,SKC,0.00,VWS V14.01,2013-02-03 17:20:00,
2013-02-03 09:25:00,50.7,44.8,30.22,South,190,1.0,3.0,80,0.00,,SKC,0.00,VWS V14.01,2013-02-03 17:25:00,
2013-02-03 09:30:00,51.2,44.2,30.22,South,178,2.0,6.0,77,0.00,,SKC,0.00,VWS V14.01,2013-02-03 17:30:00,
2013-02-03 09:35:00,51.6,45.0,30.22,West,275,0.0,5.0,78,0.00,,SKC,0.00,VWS V14.01,2013-02-03 17:35:00,
2013-02-03 09:40:00,52.2,44.9,30.22,SSE,160,1.0,6.0,76,0.00,,SKC,0.00,VWS V14.01,2013-02-03 17:40:00,
2013-02-03 09:45:00,52.2,44.5,30.22,South,172,0.0,5.0,75,0.00,,SKC,0.00,VWS V14.01,2013-02-03 17:45:00,
2013-02-03 09:50:00,52.6,45.3,30.22,SSE,165,0.0,4.0,76,0.00,,SKC,0.00,VWS V14.01,2013-02-03 17:50:00,
2013-02-03 09:55:00,53.0,45.0,30.22,SSE,167,0.0,6.0,74,0.00,,SKC,0.00,VWS V14.01,2013-02-03 17:55:00,
2013-02-03 10:00:00,53.1,45.0,30.22,WSW,248,1.0,4.0,74,0.00,,SKC,0.00,VWS V14.01,2013-02-03 18:00:00,
2013-02-03 10:05:00,53.4,45.0,30.23,SSW,195,0.0,5.0,73,0.00,,SKC,0.00,VWS V14.01,2013-02-03 18:05:00,
2013-02-03 10:10:00,53.8,45.0,30.23,SSW,208,0.0,7.0,72,0.00,,SKC,0.00,VWS V14.01,2013-02-03 18:10:00,
2013-02-03 10:15:00,53.7,44.9,30.23,South,186,0.0,6.0,72,0.00,,SKC,0.00,VWS V14.01,2013-02-03 18:15:00,
2013-02-03 10:20:00,54.0,45.2,30.23,SW,233,0.0,6.0,72,0.00,,SKC,0.00,VWS V14.01,2013-02-03 18:20:00,
2013-02-03 10:25:00,54.4,45.2,30.23,SW,234,0.0,2.0,71,0.00,,SKC,0.00,VWS V14.01,2013-02-03 18:25:00,
2013-02-03 10:35:00,54.8,45.6,30.23,WNW,298,1.0,4.0,71,0.00,,SKC,0.00,VWS V14.01,2013-02-03 18:35:00,
2013-02-03 10:40:00,55.5,45.9,30.23,SW,217,1.0,5.0,70,0.00,,SKC,0.00,VWS V14.01,2013-02-03 18:40:00,
2013-02-03 10:45:00,55.9,45.5,30.23,WNW,284,4.0,8.0,68,0.00,,SKC,0.00,VWS V14.01,2013-02-03 18:45:00,
2013-02-03 10:50:00,56.2,45.4,30.23,WNW,284,1.0,4.0,67,0.00,,SKC,0.00,VWS V14.01,2013-02-03 18:50:00,
2013-02-03 10:55:00,56.5,45.3,30.23,SW,233,0.0,5.0,66,0.00,,SKC,0.00,VWS V14.01,2013-02-03 18:55:00,
2013-02-03 11:00:00,56.4,45.6,30.22,WNW,287,1.0,5.0,67,0.00,,SKC,0.00,VWS V14.01,2013-02-03 19:00:00,
2013-02-03 11:05:00,57.1,46.3,30.22,West,268,0.0,4.0,67,0.00,,SKC,0.00,VWS V14.01,2013-02-03 19:05:00,
2013-02-03 11:10:00,58.0,46.3,30.21,West,267,0.0,1.0,65,0.00,,SKC,0.00,VWS V14.01,2013-02-03 19:10:00,
2013-02-03 11:15:00,58.4,45.9,30.21,SE,144,0.0,4.0,63,0.00,,SKC,0.00,VWS V14.01,2013-02-03 19:15:00,
2013-02-03 11:20:00,58.5,46.8,30.20,West,273,1.0,5.0,65,0.00,,SKC,0.00,VWS V14.01,2013-02-03 19:20:00,
2013-02-03 11:25:00,57.8,45.7,30.20,South,185,0.0,5.0,64,0.00,,SKC,0.00,VWS V14.01,2013-02-03 19:25:00,
2013-02-03 11:30:00,57.6,45.5,30.20,South,182,2.0,5.0,64,0.00,,SKC,0.00,VWS V14.01,2013-02-03 19:30:00,
2013-02-03 11:35:00,58.0,46.3,30.19,WSW,248,0.0,2.0,65,0.00,,SKC,0.00,VWS V14.01,2013-02-03 19:35:00,
2013-02-03 11:40:00,58.6,46.1,30.19,WSW,257,0.0,5.0,63,0.00,,SKC,0.00,VWS V14.01,2013-02-03 19:40:00,
2013-02-03 11:45:00,58.5,46.0,30.18,WSW,249,0.0,2.0,63,0.00,,SKC,0.00,VWS V14.01,2013-02-03 19:45:00,
2013-02-03 11:50:00,58.4,46.7,30.18,WSW,250,1.0,4.0,65,0.00,,SKC,0.00,VWS V14.01,2013-02-03 19:50:00,
2013-02-03 11:55:00,58.6,46.1,30.18,South,186,0.0,3.0,63,0.00,,SKC,0.00,VWS V14.01,2013-02-03 19:55:00,
2013-02-03 12:00:00,58.5,46.4,30.18,South,186,0.0,4.0,64,0.00,,SKC,0.00,VWS V14.01,2013-02-03 20:00:00,
2013-02-03 12:05:00,58.4,46.3,30.17,South,186,2.0,2.0,64,0.00,,SKC,0.00,VWS V14.01,2013-02-03 20:05:00,
2013-02-03 12:10:00,59.0,46.8,30.17,SSW,206,0.0,4.0,64,0.00,,SKC,0.00,VWS V14.01,2013-02-03 20:10:00,
2013-02-03 12:15:00,59.8,47.2,30.18,WNW,300,1.0,5.0,63,0.00,,SKC,0.00,VWS V14.01,2013-02-03 20:15:00,
2013-02-03 12:20:00,60.1,46.6,30.17,SSW,196,2.0,4.0,61,0.00,,SKC,0.00,VWS V14.01,2013-02-03 20:20:00,
2013-02-03 12:25:00,60.1,46.6,30.17,WNW,288,2.0,4.0,61,0.00,,SKC,0.00,VWS V14.01,2013-02-03 20:25:00,
2013-02-03 12:30:00,60.2,47.2,30.16,SW,229,0.0,7.0,62,0.00,,SKC,0.00,VWS V14.01,2013-02-03 20:30:00,
2013-02-03 12:35:00,60.5,47.0,30.16,West,280,0.0,5.0,61,0.00,,SKC,0.00,VWS V14.01,2013-02-03 20:35:00,
2013-02-03 12:40:00,60.7,47.2,30.16,SW,219,2.0,4.0,61,0.00,,SKC,0.00,VWS V14.01,2013-02-03 20:40:00,
2013-02-03 12:45:00,60.7,47.6,30.16,WNW,286,0.0,6.0,62,0.00,,SKC,0.00,VWS V14.01,2013-02-03 20:45:00,
2013-02-03 12:50:00,61.2,47.7,30.15,WNW,286,3.0,5.0,61,0.00,,SKC,0.00,VWS V14.01,2013-02-03 20:50:00,
2013-02-03 12:55:00,61.3,47.3,30.15,SW,225,0.0,6.0,60,0.00,,SKC,0.00,VWS V14.01,2013-02-03 20:55:00,
2013-02-03 13:00:00,61.9,48.3,30.15,SW,232,0.0,4.0,61,0.00,,SKC,0.00,VWS V14.01,2013-02-03 21:00:00,
2013-02-03 13:05:00,62.3,47.8,30.15,West,271,2.0,6.0,59,0.00,,SKC,0.00,VWS V14.01,2013-02-03 21:05:00,
2013-02-03 13:10:00,62.7,48.2,30.15,West,276,0.0,6.0,59,0.00,,SKC,0.00,VWS V14.01,2013-02-03 21:10:00,
2013-02-03 13:15:00,62.5,47.5,30.15,SSW,195,0.0,4.0,58,0.00,,SKC,0.00,VWS V14.01,2013-02-03 21:15:00,
2013-02-03 13:20:00,62.7,48.2,30.15,SSW,202,3.0,4.0,59,0.00,,SKC,0.00,VWS V14.01,2013-02-03 21:20:00,
2013-02-03 13:25:00,62.5,47.5,30.16,South,176,3.0,5.0,58,0.00,,SKC,0.00,VWS V14.01,2013-02-03 21:25:00,
2013-02-03 13:30:00,62.0,47.5,30.15,South,176,0.0,3.0,59,0.00,,SKC,0.00,VWS V14.01,2013-02-03 21:30:00,
2013-02-03 13:35:00,62.2,47.7,30.15,South,177,2.0,2.0,59,0.00,,SKC,0.00,VWS V14.01,2013-02-03 21:35:00,
2013-02-03 13:40:00,62.3,47.8,30.15,West,279,5.0,7.0,59,0.00,,SKC,0.00,VWS V14.01,2013-02-03 21:40:00,
2013-02-03 13:45:00,62.0,47.1,30.15,WSW,246,0.0,7.0,58,0.00,,SKC,0.00,VWS V14.01,2013-02-03 21:45:00,
2013-02-03 13:50:00,61.8,46.9,30.15,NW,315,4.0,7.0,58,0.00,,SKC,0.00,VWS V14.01,2013-02-03 21:50:00,
2013-02-03 13:55:00,61.4,47.0,30.14,NNE,18,4.0,5.0,59,0.00,,SKC,0.00,VWS V14.01,2013-02-03 21:55:00,
2013-02-03 14:00:00,61.2,47.7,30.14,West,276,5.0,6.0,61,0.00,,SKC,0.00,VWS V14.01,2013-02-03 22:00:00,
2013-02-03 14:05:00,61.5,48.4,30.14,West,279,4.0,9.0,62,0.00,,SKC,0.00,VWS V14.01,2013-02-03 22:05:00,
2013-02-03 14:10:00,61.6,48.5,30.13,West,280,1.0,7.0,62,0.00,,SKC,0.00,VWS V14.01,2013-02-03 22:10:00,
2013-02-03 14:15:00,61.4,48.3,30.14,SW,227,4.0,7.0,62,0.00,,SKC,0.00,VWS V14.01,2013-02-03 22:15:00,
2013-02-03 14:20:00,61.1,48.8,30.14,NW,322,1.0,6.0,64,0.00,,SKC,0.00,VWS V14.01,2013-02-03 22:20:00,
2013-02-03 14:25:00,61.0,48.3,30.13,NW,304,1.0,6.0,63,0.00,,SKC,0.00,VWS V14.01,2013-02-03 22:25:00,
2013-02-03 14:30:00,60.8,48.1,30.14,WNW,300,0.0,6.0,63,0.00,,SKC,0.00,VWS V14.01,2013-02-03 22:30:00,
2013-02-03 14:35:00,60.5,47.9,30.13,West,259,4.0,6.0,63,0.00,,SKC,0.00,VWS V14.01,2013-02-03 22:35:00,
2013-02-03 14:40:00,60.5,48.3,30.13,NW,304,5.0,6.0,64,0.00,,SKC,0.00,VWS V14.01,2013-02-03 22:40:00,
2013-02-03 14:45:00,60.8,48.1,30.13,West,260,5.0,6.0,63,0.00,,SKC,0.00,VWS V14.01,2013-02-03 22:45:00,
2013-02-03 14:50:00,61.1,48.0,30.13,West,260,0.0,5.0,62,0.00,,SKC,0.00,VWS V14.01,2013-02-03 22:50:00,
2013-02-03 14:55:00,60.8,48.1,30.13,NNW,332,3.0,5.0,63,0.00,,SKC,0.00,VWS V14.01,2013-02-03 22:55:00,
2013-02-03 15:00:00,60.3,47.7,30.13,NNW,340,3.0,4.0,63,0.00,,SKC,0.00,VWS V14.01,2013-02-03 23:00:00,
2013-02-03 15:05:00,60.4,48.2,30.12,NW,323,2.0,4.0,64,0.00,,SKC,0.00,VWS V14.01,2013-02-03 23:05:00,
2013-02-03 15:10:00,60.5,48.3,30.12,NNW,327,2.0,6.0,64,0.00,,SKC,0.00,VWS V14.01,2013-02-03 23:10:00,
2013-02-03 15:15:00,60.8,48.1,30.12,WNW,285,0.0,4.0,63,0.00,,SKC,0.00,VWS V14.01,2013-02-03 23:15:00,
2013-02-03 15:20:00,60.8,48.1,30.13,NNE,28,4.0,6.0,63,0.00,,SKC,0.00,VWS V14.01,2013-02-03 23:20:00,
2013-02-03 15:25:00,60.4,47.8,30.13,NW,309,5.0,6.0,63,0.00,,SKC,0.00,VWS V14.01,2013-02-03 23:25:00,
2013-02-03 15:30:00,60.1,47.9,30.13,WNW,303,0.0,6.0,64,0.00,,SKC,0.00,VWS V14.01,2013-02-03 23:30:00,
2013-02-03 15:35:00,60.0,48.2,30.13,West,271,0.0,7.0,65,0.00,,SKC,0.00,VWS V14.01,2013-02-03 23:35:00,
2013-02-03 15:40:00,59.8,47.6,30.12,WNW,299,3.0,5.0,64,0.00,,SKC,0.00,VWS V14.01,2013-02-03 23:40:00,
2013-02-03 15:45:00,59.4,47.2,30.12,West,281,0.0,4.0,64,0.00,,SKC,0.00,VWS V14.01,2013-02-03 23:45:00,
2013-02-03 15:50:00,59.2,47.5,30.12,NW,311,3.0,4.0,65,0.00,,SKC,0.00,VWS V14.01,2013-02-03 23:50:00,
2013-02-03 15:55:00,59.1,47.4,30.12,NNW,336,0.0,4.0,65,0.00,,SKC,0.00,VWS V14.01,2013-02-03 23:55:00,
2013-02-03 16:00:00,59.2,47.5,30.12,NW,304,2.0,5.0,65,0.00,,SKC,0.00,VWS V14.01,2013-02-04 00:00:00,
2013-02-03 16:05:00,59.3,47.5,30.12,WNW,302,1.0,5.0,65,0.00,,SKC,0.00,VWS V14.01,2013-02-04 00:05:00,
2013-02-03 16:10:00,59.3,47.5,30.12,WNW,294,3.0,5.0,65,0.00,,SKC,0.00,VWS V14.01,2013-02-04 00:10:00,
2013-02-03 16:15:00,59.3,48.0,30.11,WNW,286,4.0,4.0,66,0.00,,SKC,0.00,VWS V14.01,2013-02-04 00:15:00,
2013-02-03 16:20:00,59.1,47.4,30.11,WNW,282,0.0,5.0,65,0.00,,SKC,0.00,VWS V14.01,2013-02-04 00:20:00,
2013-02-03 16:25:00,59.0,47.7,30.11,NNW,328,1.0,7.0,66,0.00,,SKC,0.00,VWS V14.01,2013-02-04 00:25:00,
2013-02-03 16:30:00,59.0,47.7,30.11,WNW,296,0.0,6.0,66,0.00,,SKC,0.00,VWS V14.01,2013-02-04 00:30:00,
2013-02-03 16:35:00,58.8,47.9,30.11,WNW,299,0.0,6.0,67,0.00,,SKC,0.00,VWS V14.01,2013-02-04 00:35:00,
2013-02-03 16:40:00,58.6,47.3,30.11,NW,310,1.0,4.0,66,0.00,,SKC,0.00,VWS V14.01,2013-02-04 00:40:00,
2013-02-03 16:45:00,58.4,47.5,30.11,NW,310,0.0,2.0,67,0.00,,SKC,0.00,VWS V14.01,2013-02-04 00:45:00,
2013-02-03 16:55:00,58.0,47.5,30.11,WNW,292,4.0,5.0,68,0.00,,SKC,0.00,VWS V14.01,2013-02-04 00:55:00,
2013-02-03 17:00:00,57.9,47.4,30.11,WNW,295,3.0,5.0,68,0.00,,SKC,0.00,VWS V14.01,2013-02-04 01:00:00,
2013-02-03 17:05:00,57.7,47.2,30.11,NW,313,1.0,5.0,68,0.00,,SKC,0.00,VWS V14.01,2013-02-04 01:05:00,
2013-02-03 17:10:00,57.4,47.3,30.11,WNW,286,0.0,5.0,69,0.00,,SKC,0.00,VWS V14.01,2013-02-04 01:10:00,
2013-02-03 17:15:00,57.0,46.9,30.12,NNW,347,1.0,1.0,69,0.00,,SKC,0.00,VWS V14.01,2013-02-04 01:15:00,
2013-02-03 17:20:00,56.5,46.8,30.12,NNW,344,0.0,2.0,70,0.00,,SKC,0.00,VWS V14.01,2013-02-04 01:20:00,
2013-02-03 17:25:00,56.1,46.8,30.12,NNW,344,0.0,0.0,71,0.00,,SKC,0.00,VWS V14.01,2013-02-04 01:25:00,
2013-02-03 17:30:00,55.3,46.1,30.12,NNW,344,0.0,0.0,71,0.00,,SKC,0.00,VWS V14.01,2013-02-04 01:30:00,
2013-02-03 17:35:00,54.4,45.6,30.12,NNW,344,0.0,1.0,72,0.00,,SKC,0.00,VWS V14.01,2013-02-04 01:35:00,
2013-02-03 17:40:00,53.5,46.1,30.12,NNW,344,0.0,0.0,76,0.00,,SKC,0.00,VWS V14.01,2013-02-04 01:40:00,
2013-02-03 17:45:00,52.7,45.0,30.12,NNW,344,0.0,1.0,75,0.00,,SKC,0.00,VWS V14.01,2013-02-04 01:45:00,
2013-02-03 17:50:00,51.7,44.4,30.12,NNW,344,0.0,2.0,76,0.00,,SKC,0.00,VWS V14.01,2013-02-04 01:50:00,
2013-02-03 17:55:00,51.0,44.0,30.13,NNW,344,0.0,0.0,77,0.00,,SKC,0.00,VWS V14.01,2013-02-04 01:55:00,
2013-02-03 18:00:00,50.4,44.1,30.13,NNW,344,0.0,1.0,79,0.00,,SKC,0.00,VWS V14.01,2013-02-04 02:00:00,
2013-02-03 18:05:00,50.0,43.8,30.12,NNW,344,0.0,0.0,79,0.00,,SKC,0.00,VWS V14.01,2013-02-04 02:05:00,
2013-02-03 18:10:00,49.6,43.4,30.12,NNW,344,0.0,0.0,79,0.00,,SKC,0.00,VWS V14.01,2013-02-04 02:10:00,
2013-02-03 18:15:00,49.2,43.3,30.13,NNW,344,0.0,0.0,80,0.00,,SKC,0.00,VWS V14.01,2013-02-04 02:15:00,
2013-02-03 18:20:00,49.0,43.4,30.13,NNW,344,0.0,0.0,81,0.00,,SKC,0.00,VWS V14.01,2013-02-04 02:20:00,
2013-02-03 18:25:00,48.7,43.1,30.13,NNW,344,0.0,0.0,81,0.00,,SKC,0.00,VWS V14.01,2013-02-04 02:25:00,
2013-02-03 18:30:00,48.5,43.3,30.13,NNW,344,0.0,0.0,82,0.00,,SKC,0.00,VWS V14.01,2013-02-04 02:30:00,
2013-02-03 18:35:00,48.3,43.4,30.13,NNW,344,0.0,0.0,83,0.00,,SKC,0.00,VWS V14.01,2013-02-04 02:35:00,
2013-02-03 18:40:00,48.1,43.2,30.13,NNW,344,0.0,0.0,83,0.00,,SKC,0.00,VWS V14.01,2013-02-04 02:40:00,
2013-02-03 18:50:00,47.5,42.6,30.13,NNW,344,0.0,0.0,83,0.00,,SKC,0.00,VWS V14.01,2013-02-04 02:50:00,
2013-02-03 18:55:00,47.2,42.6,30.13,NNW,344,0.0,0.0,84,0.00,,SKC,0.00,VWS V14.01,2013-02-04 02:55:00,
2013-02-03 19:00:00,46.8,42.2,30.13,NNW,344,0.0,2.0,84,0.00,,SKC,0.00,VWS V14.01,2013-02-04 03:00:00,
2013-02-03 19:10:00,46.4,42.1,30.13,NNW,344,0.0,0.0,85,0.00,,SKC,0.00,VWS V14.01,2013-02-04 03:10:00,
2013-02-03 19:20:00,46.2,42.5,30.14,NNW,344,0.0,0.0,87,0.00,,SKC,0.00,VWS V14.01,2013-02-04 03:20:00,
2013-02-03 19:25:00,46.1,42.5,30.14,NNW,344,0.0,0.0,87,0.00,,SKC,0.00,VWS V14.01,2013-02-04 03:25:00,
2013-02-03 19:30:00,45.9,42.3,30.14,NNW,344,0.0,0.0,87,0.00,,SKC,0.00,VWS V14.01,2013-02-04 03:30:00,
2013-02-03 19:40:00,45.2,41.6,30.14,NNW,344,0.0,0.0,87,0.00,,SKC,0.00,VWS V14.01,2013-02-04 03:40:00,
2013-02-03 19:45:00,45.0,41.4,30.14,NNW,344,0.0,0.0,87,0.00,,SKC,0.00,VWS V14.01,2013-02-04 03:45:00,
2013-02-03 19:50:00,44.6,41.0,30.14,NNW,344,0.0,0.0,87,0.00,,SKC,0.00,VWS V14.01,2013-02-04 03:50:00,
2013-02-03 19:55:00,44.3,41.0,30.14,NNW,344,0.0,0.0,88,0.00,,SKC,0.00,VWS V14.01,2013-02-04 03:55:00,
2013-02-03 20:05:00,44.0,40.7,30.14,NNW,344,0.0,0.0,88,0.00,,SKC,0.00,VWS V14.01,2013-02-04 04:05:00,
2013-02-03 20:10:00,43.8,40.8,30.14,NNW,344,0.0,0.0,89,0.00,,SKC,0.00,VWS V14.01,2013-02-04 04:10:00,
2013-02-03 20:15:00,43.7,40.7,30.14,NNW,344,0.0,0.0,89,0.00,,SKC,0.00,VWS V14.01,2013-02-04 04:15:00,
2013-02-03 20:20:00,43.5,40.5,30.14,NNW,344,0.0,0.0,89,0.00,,SKC,0.00,VWS V14.01,2013-02-04 04:20:00,
2013-02-03 20:25:00,43.3,40.3,30.14,NNW,344,0.0,0.0,89,0.00,,SKC,0.00,VWS V14.01,2013-02-04 04:25:00,
2013-02-03 20:30:00,43.2,40.2,30.14,NNW,344,0.0,0.0,89,0.00,,SKC,0.00,VWS V14.01,2013-02-04 04:30:00,
2013-02-03 20:40:00,43.5,40.8,30.14,NNW,344,0.0,0.0,90,0.00,,SKC,0.00,VWS V14.01,2013-02-04 04:40:00,
2013-02-03 20:50:00,43.1,40.4,30.14,NNW,344,0.0,0.0,90,0.00,,SKC,0.00,VWS V14.01,2013-02-04 04:50:00,
2013-02-03 20:55:00,42.8,40.1,30.14,NNW,344,0.0,0.0,90,0.00,,SKC,0.00,VWS V14.01,2013-02-04 04:55:00,
2013-02-03 21:05:00,42.6,40.2,30.13,NNW,344,0.0,0.0,91,0.00,,SKC,0.00,VWS V14.01,2013-02-04 05:05:00,
2013-02-03 21:10:00,42.7,40.3,30.13,NNW,344,0.0,0.0,91,0.00,,SKC,0.00,VWS V14.01,2013-02-04 05:10:00,
2013-02-03 21:15:00,42.6,40.2,30.13,NNW,344,0.0,0.0,91,0.00,,SKC,0.00,VWS V14.01,2013-02-04 05:15:00,
2013-02-03 21:20:00,42.4,40.0,30.14,NNW,344,0.0,0.0,91,0.00,,SKC,0.00,VWS V14.01,2013-02-04 05:20:00,
2013-02-03 21:25:00,42.3,39.9,30.14,NNW,344,0.0,0.0,91,0.00,,SKC,0.00,VWS V14.01,2013-02-04 05:25:00,
2013-02-03 21:35:00,42.1,39.7,30.14,NNW,344,0.0,0.0,91,0.00,,SKC,0.00,VWS V14.01,2013-02-04 05:35:00,
2013-02-03 21:45:00,41.9,39.8,30.14,NNW,344,0.0,0.0,92,0.00,,SKC,0.00,VWS V14.01,2013-02-04 05:45:00,
2013-02-03 21:50:00,41.9,39.8,30.14,NNW,344,0.0,0.0,92,0.00,,SKC,0.00,VWS V14.01,2013-02-04 05:50:00,
2013-02-03 21:55:00,41.9,39.8,30.13,NNW,344,0.0,0.0,92,0.00,,SKC,0.00,VWS V14.01,2013-02-04 05:55:00,
2013-02-03 22:00:00,41.9,39.8,30.13,NNW,344,0.0,1.0,92,0.00,,SKC,0.00,VWS V14.01,2013-02-04 06:00:00,
2013-02-03 22:05:00,42.0,39.8,30.13,NNW,344,0.0,0.0,92,0.00,,SKC,0.00,VWS V14.01,2013-02-04 06:05:00,
2013-02-03 22:10:00,41.9,39.8,30.13,NNW,344,0.0,0.0,92,0.00,,SKC,0.00,VWS V14.01,2013-02-04 06:10:00,
2013-02-03 22:20:00,42.0,40.1,30.13,NNW,344,0.0,0.0,93,0.00,,SKC,0.00,VWS V14.01,2013-02-04 06:20:00,
2013-02-03 22:25:00,42.1,40.2,30.14,NNW,344,0.0,0.0,93,0.00,,SKC,0.00,VWS V14.01,2013-02-04 06:25:00,
2013-02-03 22:30:00,42.0,39.8,30.14,NNW,344,0.0,0.0,92,0.00,,SKC,0.00,VWS V14.01,2013-02-04 06:30:00,
2013-02-03 22:35:00,41.9,40.0,30.14,NNW,344,0.0,0.0,93,0.00,,SKC,0.00,VWS V14.01,2013-02-04 06:35:00,
2013-02-03 22:40:00,41.8,39.7,30.14,NNW,344,0.0,0.0,92,0.00,,SKC,0.00,VWS V14.01,2013-02-04 06:40:00,
2013-02-03 22:45:00,41.6,39.5,30.13,NNW,344,0.0,0.0,92,0.00,,SKC,0.00,VWS V14.01,2013-02-04 06:45:00,
2013-02-03 22:50:00,41.5,39.3,30.13,NNW,344,0.0,0.0,92,0.00,,SKC,0.00,VWS V14.01,2013-02-04 06:50:00,
2013-02-03 23:00:00,41.5,39.6,30.14,NNW,344,0.0,0.0,93,0.00,,SKC,0.00,VWS V14.01,2013-02-04 07:00:00,
2013-02-03 23:05:00,41.5,39.6,30.14,NNW,344,0.0,1.0,93,0.00,,SKC,0.00,VWS V14.01,2013-02-04 07:05:00,
2013-02-03 23:15:00,41.5,39.6,30.14,NNW,344,0.0,0.0,93,0.00,,SKC,0.00,VWS V14.01,2013-02-04 07:15:00,
2013-02-03 23:20:00,41.4,39.5,30.13,NNW,344,0.0,0.0,93,0.00,,SKC,0.00,VWS V14.01,2013-02-04 07:20:00,
2013-02-03 23:30:00,41.3,39.4,30.13,NNW,344,0.0,0.0,93,0.00,,SKC,0.00,VWS V14.01,2013-02-04 07:30:00,
2013-02-03 23:35:00,41.1,39.2,30.13,NNW,344,0.0,0.0,93,0.00,,SKC,0.00,VWS V14.01,2013-02-04 07:35:00,
2013-02-03 23:45:00,41.0,39.1,30.14,NNW,344,0.0,0.0,93,0.00,,SKC,0.00,VWS V14.01,2013-02-04 07:45:00,
2013-02-03 23:50:00,40.9,39.0,30.13,NNW,344,0.0,0.0,93,0.00,,SKC,0.00,VWS V14.01,2013-02-04 07:50:00,
2013-02-03 23:55:00,40.9,39.0,30.14,NNW,344,0.0,0.0,93,0.00,,SKC,0.00,VWS V14.01,2013-02-04 07:55:00,